Miami, Florida
Traffic Map
Current Weather Conditions
Miami, Florida
Clear
Clear
68°
Feels Like: 68°
Wind Chill: 68° Ceiling: Unl
Heat Index: 68° Visibility: 10mi
Dew Point: 58° Wind: 5mph
Humidity: 70% Direction: 50° (NE)
Pressure: 30.06in Gusts: 0mph
Raw Report DataKMIA 210553Z 05004KT 10SM CLR 20/14 A3006 RMK AO2 SLP179 T02000144 10222 20200 58014
Traffic Incident Summary
Active as of:
Severity:
Category:
InformationThere was an issue retrieving the traffic information for this location. Please try a different location or try again shortly.
Advertisements
Track Severe Weather on mobile